Bradleyville, MO (65614)

8:09 PM CDT on August 22, 2014 (GMT -0500)
Rome, Missouri | Change Station
CLOSE
Current Station
Personal Weather Station
Location: Ava, MO
Elevation: 981 ft
Nearby Weather Stations
Active Advisory: Heat Advisory

Elev 981 ft 36.84 °N, 92.78 °W | Updated 3 minutes ago

Scattered Clouds
Scattered Clouds
92.1 °F
Feels Like 104 °F
N
0.0
Wind Variable Wind from SW
Gusts 10.0 mph

Today
High -- | Low -- °F
--% Chance of Precip.
Yesterday
High -- | Low -- °F
Precip. -- in
6:34 AM 7:53 PM
Waning Crescent, 6% visible
Pressure 30.00 in
Visibility 10.0 miles
Clouds Few 7000 ft
Scattered Clouds 20000 ft
Heat Index 104 °F
Dew Point 76 °F
Humidity 59%
Rainfall 0.00 in
Snow Depth Not available.
UV 0 out of 12
Pollen 10.70 out of 12
Air Quality Not available.
Flu Activity Not available.
METAR KBBG 230045Z 18004KT 10SM FEW070 SCT200 32/22 A3000

More Conditions Fewer Conditions

Pressure 30.00 in
Visibility 10.0 miles
Clouds Few 7000 ft
Scattered Clouds 20000 ft
Heat Index 104 °F
Dew Point 76 °F
Humidity 59%
Rainfall 0.00 in
Snow Depth Not available.
UV 0 out of 12
Pollen 10.70 out of 12
Air Quality Not available.
Flu Activity Not available.
METAR KBBG 230045Z 18004KT 10SM FEW070 SCT200 32/22 A3000

More Conditions Fewer Conditions

10-Day Weather Forecast

Almanac

Astronomy

Aug. 22, 2014 Rise Set
Actual Time 6:34 AM CDT 7:53 PM CDT
Civil Twilight 6:07 AM CDT 8:20 PM CDT
Nautical Twilight 5:35 AM CDT 8:52 PM CDT
Astronomical Twilight 5:01 AM CDT 9:26 PM CDT
Moon 3:59 AM CDT (8/22) 6:01 PM CDT (8/22)
Length of Visible Light 14h 13m
Length of Day
13h 19m
Tomorrow will be 2m 8s shorter.
Waning Crescent, 6% of the Moon is Illuminated
Today
Waning Crescent
Aug 25
New
Sep 2
First Quarter
Sep 8
Full
Sep 15
Last Quarter

Today's Extremes

State Highs State Lows

Community

WunderPhotos

Upload Photos

1,746,336 photos uploaded!

WunderBlogs® & News

Nearby

Snow Depth

Station Depth Elevation
No new snow has been reported.

Earthquake Activity

City Distance Mag. Time & Date
No recent earthquake activity has been reported nearby.
Minimum magnitude displayed is 2.5.

Coastal Water Temperatures

Place Temperature
No Stations Reporting

Nearby Weather Stations